sensor_id;sensor_type;location;lat;lon;timestamp;P1;durP1;ratioP1;P2;durP2;ratioP2
59770;SDS011;45649;53.014;6.600;2022-12-24T00:00:18;21.43;;;16.10;;
59770;SDS011;45649;53.014;6.600;2022-12-24T00:02:44;21.80;;;16.27;;
59770;SDS011;45649;53.014;6.600;2022-12-24T00:05:11;22.70;;;15.90;;
59770;SDS011;45649;53.014;6.600;2022-12-24T00:07:37;22.07;;;16.70;;
59770;SDS011;45649;53.014;6.600;2022-12-24T00:10:06;18.83;;;15.67;;
59770;SDS011;45649;53.014;6.600;2022-12-24T00:12:33;22.60;;;17.43;;
59770;SDS011;45649;53.014;6.600;2022-12-24T00:14:59;21.20;;;16.47;;
59770;SDS011;45649;53.014;6.600;2022-12-24T00:17:25;19.10;;;15.30;;
59770;SDS011;45649;53.014;6.600;2022-12-24T00:19:52;21.73;;;16.90;;
59770;SDS011;45649;53.014;6.600;2022-12-24T00:22:18;21.40;;;16.57;;
59770;SDS011;45649;53.014;6.600;2022-12-24T00:24:45;19.50;;;16.00;;
59770;SDS011;45649;53.014;6.600;2022-12-24T00:27:11;21.53;;;16.80;;
59770;SDS011;45649;53.014;6.600;2022-12-24T00:29:37;23.50;;;16.57;;
59770;SDS011;45649;53.014;6.600;2022-12-24T00:32:03;22.60;;;16.70;;
59770;SDS011;45649;53.014;6.600;2022-12-24T00:34:34;25.50;;;21.40;;
59770;SDS011;45649;53.014;6.600;2022-12-24T00:37:00;29.30;;;22.70;;
59770;SDS011;45649;53.014;6.600;2022-12-24T00:39:26;22.50;;;17.77;;
59770;SDS011;45649;53.014;6.600;2022-12-24T00:41:52;20.93;;;16.80;;
59770;SDS011;45649;53.014;6.600;2022-12-24T00:44:18;23.20;;;17.13;;
59770;SDS011;45649;53.014;6.600;2022-12-24T00:46:44;21.77;;;16.80;;
59770;SDS011;45649;53.014;6.600;2022-12-24T00:49:11;21.40;;;16.53;;
59770;SDS011;45649;53.014;6.600;2022-12-24T00:51:37;23.80;;;17.03;;
59770;SDS011;45649;53.014;6.600;2022-12-24T00:54:04;20.10;;;16.23;;
59770;SDS011;45649;53.014;6.600;2022-12-24T00:56:30;20.13;;;16.77;;
59770;SDS011;45649;53.014;6.600;2022-12-24T00:58:56;21.33;;;17.20;;
59770;SDS011;45649;53.014;6.600;2022-12-24T01:01:22;22.67;;;16.90;;
59770;SDS011;45649;53.014;6.600;2022-12-24T01:03:49;22.43;;;17.30;;
59770;SDS011;45649;53.014;6.600;2022-12-24T01:06:16;21.33;;;17.00;;
59770;SDS011;45649;53.014;6.600;2022-12-24T01:08:43;20.37;;;17.40;;
59770;SDS011;45649;53.014;6.600;2022-12-24T01:11:09;20.13;;;16.23;;
59770;SDS011;45649;53.014;6.600;2022-12-24T01:13:36;22.50;;;17.37;;
59770;SDS011;45649;53.014;6.600;2022-12-24T01:16:02;22.43;;;17.60;;
59770;SDS011;45649;53.014;6.600;2022-12-24T01:18:28;22.67;;;18.13;;
59770;SDS011;45649;53.014;6.600;2022-12-24T01:20:58;23.40;;;17.97;;
59770;SDS011;45649;53.014;6.600;2022-12-24T01:23:25;21.50;;;17.40;;
59770;SDS011;45649;53.014;6.600;2022-12-24T01:25:51;21.77;;;17.60;;
59770;SDS011;45649;53.014;6.600;2022-12-24T01:28:18;22.37;;;17.63;;
59770;SDS011;45649;53.014;6.600;2022-12-24T01:30:44;22.93;;;17.90;;
59770;SDS011;45649;53.014;6.600;2022-12-24T01:33:11;22.50;;;17.10;;
59770;SDS011;45649;53.014;6.600;2022-12-24T01:35:41;24.03;;;18.17;;
59770;SDS011;45649;53.014;6.600;2022-12-24T01:38:07;24.07;;;18.63;;
59770;SDS011;45649;53.014;6.600;2022-12-24T01:40:33;22.77;;;18.53;;
59770;SDS011;45649;53.014;6.600;2022-12-24T01:43:19;24.57;;;17.97;;
59770;SDS011;45649;53.014;6.600;2022-12-24T01:53:39;23.47;;;18.17;;
59770;SDS011;45649;53.014;6.600;2022-12-24T01:56:07;25.83;;;19.00;;
59770;SDS011;45649;53.014;6.600;2022-12-24T01:58:34;24.53;;;17.53;;
59770;SDS011;45649;53.014;6.600;2022-12-24T02:01:01;24.17;;;18.93;;
59770;SDS011;45649;53.014;6.600;2022-12-24T02:03:27;23.83;;;18.30;;
59770;SDS011;45649;53.014;6.600;2022-12-24T02:05:54;24.37;;;19.23;;
59770;SDS011;45649;53.014;6.600;2022-12-24T02:08:21;24.57;;;19.07;;
59770;SDS011;45649;53.014;6.600;2022-12-24T02:10:48;23.17;;;18.57;;
59770;SDS011;45649;53.014;6.600;2022-12-24T02:13:15;23.97;;;18.47;;
59770;SDS011;45649;53.014;6.600;2022-12-24T02:15:52;26.70;;;20.00;;
59770;SDS011;45649;53.014;6.600;2022-12-24T02:18:25;24.23;;;18.40;;
59770;SDS011;45649;53.014;6.600;2022-12-24T02:32:00;27.77;;;19.23;;
59770;SDS011;45649;53.014;6.600;2022-12-24T02:37:02;30.13;;;19.50;;
59770;SDS011;45649;53.014;6.600;2022-12-24T02:39:46;24.70;;;17.37;;
59770;SDS011;45649;53.014;6.600;2022-12-24T02:42:14;23.57;;;17.10;;
59770;SDS011;45649;53.014;6.600;2022-12-24T02:44:51;24.23;;;17.23;;
59770;SDS011;45649;53.014;6.600;2022-12-24T02:47:19;23.30;;;16.83;;
59770;SDS011;45649;53.014;6.600;2022-12-24T02:49:46;21.87;;;15.40;;
59770;SDS011;45649;53.014;6.600;2022-12-24T02:52:32;24.43;;;15.97;;
59770;SDS011;45649;53.014;6.600;2022-12-24T02:55:00;22.13;;;15.00;;
59770;SDS011;45649;53.014;6.600;2022-12-24T02:57:41;22.00;;;14.67;;
59770;SDS011;45649;53.014;6.600;2022-12-24T03:00:09;24.80;;;15.73;;
59770;SDS011;45649;53.014;6.600;2022-12-24T03:10:39;20.17;;;12.53;;
59770;SDS011;45649;53.014;6.600;2022-12-24T03:13:09;14.73;;;11.23;;
59770;SDS011;45649;53.014;6.600;2022-12-24T03:15:36;18.27;;;10.67;;
59770;SDS011;45649;53.014;6.600;2022-12-24T03:18:04;19.30;;;10.90;;
59770;SDS011;45649;53.014;6.600;2022-12-24T03:20:38;21.27;;;10.40;;
59770;SDS011;45649;53.014;6.600;2022-12-24T03:23:04;23.23;;;9.87;;
59770;SDS011;45649;53.014;6.600;2022-12-24T03:25:31;23.93;;;9.30;;
59770;SDS011;45649;53.014;6.600;2022-12-24T03:27:57;21.47;;;8.47;;
59770;SDS011;45649;53.014;6.600;2022-12-24T03:30:26;20.33;;;7.43;;
59770;SDS011;45649;53.014;6.600;2022-12-24T03:32:52;25.47;;;7.77;;
59770;SDS011;45649;53.014;6.600;2022-12-24T03:35:18;29.77;;;6.77;;
59770;SDS011;45649;53.014;6.600;2022-12-24T03:37:44;28.60;;;6.77;;
59770;SDS011;45649;53.014;6.600;2022-12-24T03:40:11;26.87;;;6.43;;
59770;SDS011;45649;53.014;6.600;2022-12-24T03:42:37;38.23;;;6.57;;
59770;SDS011;45649;53.014;6.600;2022-12-24T03:45:04;36.80;;;5.93;;
59770;SDS011;45649;53.014;6.600;2022-12-24T03:47:30;35.90;;;6.00;;
59770;SDS011;45649;53.014;6.600;2022-12-24T03:49:57;27.00;;;5.30;;
59770;SDS011;45649;53.014;6.600;2022-12-24T03:52:23;30.10;;;5.43;;
59770;SDS011;45649;53.014;6.600;2022-12-24T03:54:50;28.67;;;5.27;;
59770;SDS011;45649;53.014;6.600;2022-12-24T03:57:16;31.03;;;5.00;;
59770;SDS011;45649;53.014;6.600;2022-12-24T03:59:42;31.10;;;5.43;;
59770;SDS011;45649;53.014;6.600;2022-12-24T04:02:09;32.67;;;5.27;;
59770;SDS011;45649;53.014;6.600;2022-12-24T04:04:35;35.33;;;5.57;;
59770;SDS011;45649;53.014;6.600;2022-12-24T04:07:02;31.67;;;5.30;;
59770;SDS011;45649;53.014;6.600;2022-12-24T04:09:28;29.63;;;5.00;;
59770;SDS011;45649;53.014;6.600;2022-12-24T04:11:55;34.63;;;5.00;;
59770;SDS011;45649;53.014;6.600;2022-12-24T04:14:21;33.77;;;5.43;;
59770;SDS011;45649;53.014;6.600;2022-12-24T04:16:47;33.17;;;5.27;;
59770;SDS011;45649;53.014;6.600;2022-12-24T04:19:13;34.77;;;5.90;;
59770;SDS011;45649;53.014;6.600;2022-12-24T04:21:39;37.10;;;5.90;;
59770;SDS011;45649;53.014;6.600;2022-12-24T04:24:06;36.93;;;5.43;;
59770;SDS011;45649;53.014;6.600;2022-12-24T04:26:32;29.07;;;5.13;;
59770;SDS011;45649;53.014;6.600;2022-12-24T04:28:59;34.50;;;5.77;;
59770;SDS011;45649;53.014;6.600;2022-12-24T04:31:25;33.70;;;5.70;;
59770;SDS011;45649;53.014;6.600;2022-12-24T04:33:52;35.27;;;5.80;;
59770;SDS011;45649;53.014;6.600;2022-12-24T04:36:19;34.27;;;5.70;;
59770;SDS011;45649;53.014;6.600;2022-12-24T04:38:46;26.43;;;5.03;;
59770;SDS011;45649;53.014;6.600;2022-12-24T04:41:13;35.87;;;5.73;;
59770;SDS011;45649;53.014;6.600;2022-12-24T04:43:39;26.50;;;5.80;;
59770;SDS011;45649;53.014;6.600;2022-12-24T04:46:10;29.07;;;5.43;;
59770;SDS011;45649;53.014;6.600;2022-12-24T04:48:38;33.30;;;5.60;;
59770;SDS011;45649;53.014;6.600;2022-12-24T04:51:05;36.00;;;5.80;;
59770;SDS011;45649;53.014;6.600;2022-12-24T04:53:32;31.50;;;5.83;;
59770;SDS011;45649;53.014;6.600;2022-12-24T04:55:59;34.07;;;6.07;;
59770;SDS011;45649;53.014;6.600;2022-12-24T04:58:26;33.53;;;5.33;;
59770;SDS011;45649;53.014;6.600;2022-12-24T05:00:52;35.60;;;5.70;;
59770;SDS011;45649;53.014;6.600;2022-12-24T05:03:18;35.33;;;5.70;;
59770;SDS011;45649;53.014;6.600;2022-12-24T05:05:45;39.43;;;5.73;;
59770;SDS011;45649;53.014;6.600;2022-12-24T05:08:11;36.77;;;5.80;;
59770;SDS011;45649;53.014;6.600;2022-12-24T05:10:37;40.60;;;6.53;;
59770;SDS011;45649;53.014;6.600;2022-12-24T05:13:03;37.10;;;6.23;;
59770;SDS011;45649;53.014;6.600;2022-12-24T05:15:30;35.13;;;5.97;;
59770;SDS011;45649;53.014;6.600;2022-12-24T05:17:56;36.63;;;5.83;;
59770;SDS011;45649;53.014;6.600;2022-12-24T05:20:22;41.27;;;6.00;;
59770;SDS011;45649;53.014;6.600;2022-12-24T05:22:49;40.03;;;6.17;;
59770;SDS011;45649;53.014;6.600;2022-12-24T05:25:35;46.10;;;6.10;;
59770;SDS011;45649;53.014;6.600;2022-12-24T05:28:21;35.23;;;6.23;;
59770;SDS011;45649;53.014;6.600;2022-12-24T05:30:47;40.00;;;5.83;;
59770;SDS011;45649;53.014;6.600;2022-12-24T05:33:13;46.40;;;6.57;;
59770;SDS011;45649;53.014;6.600;2022-12-24T05:35:39;33.43;;;5.63;;
59770;SDS011;45649;53.014;6.600;2022-12-24T05:38:06;36.17;;;6.00;;
59770;SDS011;45649;53.014;6.600;2022-12-24T05:40:32;42.30;;;6.50;;
59770;SDS011;45649;53.014;6.600;2022-12-24T05:42:58;34.33;;;6.07;;
59770;SDS011;45649;53.014;6.600;2022-12-24T05:45:25;38.03;;;6.50;;
59770;SDS011;45649;53.014;6.600;2022-12-24T05:47:51;37.57;;;5.80;;
59770;SDS011;45649;53.014;6.600;2022-12-24T05:50:17;38.20;;;6.50;;
59770;SDS011;45649;53.014;6.600;2022-12-24T05:52:43;37.57;;;6.20;;
59770;SDS011;45649;53.014;6.600;2022-12-24T05:55:10;32.27;;;6.03;;
59770;SDS011;45649;53.014;6.600;2022-12-24T05:57:37;30.50;;;5.57;;
59770;SDS011;45649;53.014;6.600;2022-12-24T06:00:04;38.60;;;6.03;;
59770;SDS011;45649;53.014;6.600;2022-12-24T06:02:30;43.43;;;6.57;;
59770;SDS011;45649;53.014;6.600;2022-12-24T06:04:56;37.60;;;6.10;;
59770;SDS011;45649;53.014;6.600;2022-12-24T06:07:23;31.63;;;6.07;;
59770;SDS011;45649;53.014;6.600;2022-12-24T06:09:49;44.97;;;6.70;;
59770;SDS011;45649;53.014;6.600;2022-12-24T06:12:15;38.17;;;7.17;;
59770;SDS011;45649;53.014;6.600;2022-12-24T06:14:41;30.20;;;5.50;;
59770;SDS011;45649;53.014;6.600;2022-12-24T06:17:07;35.57;;;6.47;;
59770;SDS011;45649;53.014;6.600;2022-12-24T06:19:33;38.77;;;5.60;;
59770;SDS011;45649;53.014;6.600;2022-12-24T06:21:59;47.00;;;6.90;;
59770;SDS011;45649;53.014;6.600;2022-12-24T06:24:26;38.80;;;7.90;;
59770;SDS011;45649;53.014;6.600;2022-12-24T06:26:52;39.23;;;6.93;;
59770;SDS011;45649;53.014;6.600;2022-12-24T06:29:19;41.53;;;6.70;;
59770;SDS011;45649;53.014;6.600;2022-12-24T06:31:45;40.97;;;6.60;;
59770;SDS011;45649;53.014;6.600;2022-12-24T06:34:11;42.60;;;6.60;;
59770;SDS011;45649;53.014;6.600;2022-12-24T06:36:37;36.67;;;5.83;;
59770;SDS011;45649;53.014;6.600;2022-12-24T06:39:04;43.67;;;7.63;;
59770;SDS011;45649;53.014;6.600;2022-12-24T06:41:30;44.80;;;6.90;;
59770;SDS011;45649;53.014;6.600;2022-12-24T06:43:57;39.20;;;7.37;;
59770;SDS011;45649;53.014;6.600;2022-12-24T06:46:23;49.73;;;9.40;;
59770;SDS011;45649;53.014;6.600;2022-12-24T06:48:49;45.43;;;9.50;;
59770;SDS011;45649;53.014;6.600;2022-12-24T06:51:16;38.33;;;8.47;;
59770;SDS011;45649;53.014;6.600;2022-12-24T06:53:44;39.67;;;7.67;;
59770;SDS011;45649;53.014;6.600;2022-12-24T06:56:11;35.20;;;6.93;;
59770;SDS011;45649;53.014;6.600;2022-12-24T06:58:38;38.03;;;7.47;;
59770;SDS011;45649;53.014;6.600;2022-12-24T07:01:05;33.33;;;6.60;;
59770;SDS011;45649;53.014;6.600;2022-12-24T07:03:31;36.23;;;6.57;;
59770;SDS011;45649;53.014;6.600;2022-12-24T07:05:57;42.67;;;6.93;;
59770;SDS011;45649;53.014;6.600;2022-12-24T07:08:24;42.87;;;7.50;;
59770;SDS011;45649;53.014;6.600;2022-12-24T07:10:50;39.37;;;7.83;;
59770;SDS011;45649;53.014;6.600;2022-12-24T07:13:17;36.10;;;6.90;;
59770;SDS011;45649;53.014;6.600;2022-12-24T07:15:43;43.20;;;7.77;;
59770;SDS011;45649;53.014;6.600;2022-12-24T07:18:09;42.80;;;6.90;;
59770;SDS011;45649;53.014;6.600;2022-12-24T07:20:36;45.17;;;7.73;;
59770;SDS011;45649;53.014;6.600;2022-12-24T07:23:03;36.87;;;7.40;;
59770;SDS011;45649;53.014;6.600;2022-12-24T07:25:29;44.37;;;7.37;;
59770;SDS011;45649;53.014;6.600;2022-12-24T07:27:55;34.43;;;6.60;;
59770;SDS011;45649;53.014;6.600;2022-12-24T07:30:21;34.07;;;7.07;;
59770;SDS011;45649;53.014;6.600;2022-12-24T07:32:47;33.23;;;6.37;;
59770;SDS011;45649;53.014;6.600;2022-12-24T07:35:14;36.10;;;7.13;;
59770;SDS011;45649;53.014;6.600;2022-12-24T07:37:40;36.37;;;7.27;;
59770;SDS011;45649;53.014;6.600;2022-12-24T07:40:06;40.80;;;7.40;;
59770;SDS011;45649;53.014;6.600;2022-12-24T07:42:33;36.47;;;7.03;;
59770;SDS011;45649;53.014;6.600;2022-12-24T07:45:00;39.93;;;6.80;;
59770;SDS011;45649;53.014;6.600;2022-12-24T07:47:26;38.83;;;6.53;;
59770;SDS011;45649;53.014;6.600;2022-12-24T07:49:53;34.70;;;6.13;;
59770;SDS011;45649;53.014;6.600;2022-12-24T07:52:19;38.73;;;6.53;;
59770;SDS011;45649;53.014;6.600;2022-12-24T07:54:45;36.93;;;5.97;;
59770;SDS011;45649;53.014;6.600;2022-12-24T07:57:12;37.50;;;5.83;;
59770;SDS011;45649;53.014;6.600;2022-12-24T07:59:39;39.27;;;7.33;;
59770;SDS011;45649;53.014;6.600;2022-12-24T08:02:05;36.72;;;7.13;;
59770;SDS011;45649;53.014;6.600;2022-12-24T08:04:31;35.67;;;7.83;;
59770;SDS011;45649;53.014;6.600;2022-12-24T08:07:00;38.87;;;8.23;;
59770;SDS011;45649;53.014;6.600;2022-12-24T08:09:26;45.80;;;7.27;;
59770;SDS011;45649;53.014;6.600;2022-12-24T08:11:52;36.83;;;7.90;;
59770;SDS011;45649;53.014;6.600;2022-12-24T08:14:18;45.53;;;10.50;;
59770;SDS011;45649;53.014;6.600;2022-12-24T08:16:44;40.80;;;9.23;;
59770;SDS011;45649;53.014;6.600;2022-12-24T08:19:10;36.83;;;9.23;;
59770;SDS011;45649;53.014;6.600;2022-12-24T08:21:37;37.23;;;8.60;;
59770;SDS011;45649;53.014;6.600;2022-12-24T08:24:03;28.90;;;6.27;;
59770;SDS011;45649;53.014;6.600;2022-12-24T08:26:30;26.17;;;5.10;;
59770;SDS011;45649;53.014;6.600;2022-12-24T08:28:56;38.20;;;6.87;;
59770;SDS011;45649;53.014;6.600;2022-12-24T08:31:22;45.37;;;7.37;;
59770;SDS011;45649;53.014;6.600;2022-12-24T08:33:48;33.27;;;6.67;;
59770;SDS011;45649;53.014;6.600;2022-12-24T08:36:14;35.03;;;6.67;;
59770;SDS011;45649;53.014;6.600;2022-12-24T08:38:40;38.93;;;6.67;;
59770;SDS011;45649;53.014;6.600;2022-12-24T08:41:06;33.73;;;6.37;;
59770;SDS011;45649;53.014;6.600;2022-12-24T08:43:33;33.83;;;7.30;;
59770;SDS011;45649;53.014;6.600;2022-12-24T08:46:03;28.80;;;5.70;;
59770;SDS011;45649;53.014;6.600;2022-12-24T08:48:30;34.10;;;7.40;;
59770;SDS011;45649;53.014;6.600;2022-12-24T08:50:56;34.75;;;7.53;;
59770;SDS011;45649;53.014;6.600;2022-12-24T08:53:22;36.67;;;7.20;;
59770;SDS011;45649;53.014;6.600;2022-12-24T08:55:49;31.73;;;5.77;;
59770;SDS011;45649;53.014;6.600;2022-12-24T08:58:15;37.10;;;6.67;;
59770;SDS011;45649;53.014;6.600;2022-12-24T09:00:41;33.07;;;6.30;;
59770;SDS011;45649;53.014;6.600;2022-12-24T09:03:10;29.27;;;6.17;;
59770;SDS011;45649;53.014;6.600;2022-12-24T09:05:38;35.47;;;5.67;;
59770;SDS011;45649;53.014;6.600;2022-12-24T09:08:05;30.33;;;5.60;;
59770;SDS011;45649;53.014;6.600;2022-12-24T09:10:31;32.00;;;5.97;;
59770;SDS011;45649;53.014;6.600;2022-12-24T09:12:57;35.13;;;6.60;;
59770;SDS011;45649;53.014;6.600;2022-12-24T09:15:23;31.83;;;6.50;;
59770;SDS011;45649;53.014;6.600;2022-12-24T09:17:49;41.50;;;6.70;;
59770;SDS011;45649;53.014;6.600;2022-12-24T09:20:16;40.77;;;6.67;;
59770;SDS011;45649;53.014;6.600;2022-12-24T09:22:42;30.57;;;5.67;;
59770;SDS011;45649;53.014;6.600;2022-12-24T09:25:08;37.97;;;6.90;;
59770;SDS011;45649;53.014;6.600;2022-12-24T09:27:35;36.53;;;7.03;;
59770;SDS011;45649;53.014;6.600;2022-12-24T09:30:02;36.70;;;7.00;;
59770;SDS011;45649;53.014;6.600;2022-12-24T09:32:28;28.90;;;6.23;;
59770;SDS011;45649;53.014;6.600;2022-12-24T09:34:55;35.17;;;6.40;;
59770;SDS011;45649;53.014;6.600;2022-12-24T09:37:21;40.50;;;6.83;;
59770;SDS011;45649;53.014;6.600;2022-12-24T09:39:47;39.47;;;7.10;;
59770;SDS011;45649;53.014;6.600;2022-12-24T09:45:20;37.70;;;7.30;;
59770;SDS011;45649;53.014;6.600;2022-12-24T09:47:49;38.63;;;7.13;;
59770;SDS011;45649;53.014;6.600;2022-12-24T09:50:39;40.60;;;7.43;;
59770;SDS011;45649;53.014;6.600;2022-12-24T09:53:05;32.13;;;5.90;;
59770;SDS011;45649;53.014;6.600;2022-12-24T09:55:42;41.47;;;6.73;;
59770;SDS011;45649;53.014;6.600;2022-12-24T09:58:14;34.50;;;6.03;;
59770;SDS011;45649;53.014;6.600;2022-12-24T10:00:41;39.47;;;7.23;;
59770;SDS011;45649;53.014;6.600;2022-12-24T10:03:14;34.97;;;6.20;;
59770;SDS011;45649;53.014;6.600;2022-12-24T10:05:42;35.72;;;6.88;;
59770;SDS011;45649;53.014;6.600;2022-12-24T10:10:39;29.37;;;5.23;;
59770;SDS011;45649;53.014;6.600;2022-12-24T10:15:40;19.47;;;4.10;;
59770;SDS011;45649;53.014;6.600;2022-12-24T10:20:41;22.13;;;4.03;;
59770;SDS011;45649;53.014;6.600;2022-12-24T10:23:23;14.90;;;3.90;;
59770;SDS011;45649;53.014;6.600;2022-12-24T10:28:17;16.87;;;3.90;;
59770;SDS011;45649;53.014;6.600;2022-12-24T10:30:46;18.70;;;3.70;;
59770;SDS011;45649;53.014;6.600;2022-12-24T10:33:36;18.63;;;4.07;;
59770;SDS011;45649;53.014;6.600;2022-12-24T10:35:59;16.07;;;4.10;;
59770;SDS011;45649;53.014;6.600;2022-12-24T10:38:26;21.97;;;4.47;;
59770;SDS011;45649;53.014;6.600;2022-12-24T10:40:53;20.23;;;4.37;;
59770;SDS011;45649;53.014;6.600;2022-12-24T10:43:21;28.23;;;5.40;;
59770;SDS011;45649;53.014;6.600;2022-12-24T10:48:39;30.50;;;5.87;;
59770;SDS011;45649;53.014;6.600;2022-12-24T10:51:10;32.43;;;6.07;;
59770;SDS011;45649;53.014;6.600;2022-12-24T10:53:43;30.47;;;6.30;;
59770;SDS011;45649;53.014;6.600;2022-12-24T10:56:11;28.40;;;6.23;;
59770;SDS011;45649;53.014;6.600;2022-12-24T10:58:44;29.03;;;6.90;;
59770;SDS011;45649;53.014;6.600;2022-12-24T11:01:11;28.80;;;5.80;;
59770;SDS011;45649;53.014;6.600;2022-12-24T11:03:38;29.90;;;5.83;;
59770;SDS011;45649;53.014;6.600;2022-12-24T11:06:06;32.20;;;5.87;;
59770;SDS011;45649;53.014;6.600;2022-12-24T11:08:33;28.00;;;5.30;;
59770;SDS011;45649;53.014;6.600;2022-12-24T11:13:26;28.37;;;5.47;;
59770;SDS011;45649;53.014;6.600;2022-12-24T11:16:53;30.17;;;5.60;;
59770;SDS011;45649;53.014;6.600;2022-12-24T11:18:55;25.07;;;5.10;;
59770;SDS011;45649;53.014;6.600;2022-12-24T11:21:23;27.40;;;5.20;;
59770;SDS011;45649;53.014;6.600;2022-12-24T11:23:51;24.83;;;5.17;;
59770;SDS011;45649;53.014;6.600;2022-12-24T11:26:25;23.77;;;5.07;;
59770;SDS011;45649;53.014;6.600;2022-12-24T11:31:36;29.07;;;5.93;;
59770;SDS011;45649;53.014;6.600;2022-12-24T11:34:48;29.30;;;5.47;;
59770;SDS011;45649;53.014;6.600;2022-12-24T11:36:49;29.20;;;5.17;;
59770;SDS011;45649;53.014;6.600;2022-12-24T11:39:23;31.83;;;6.30;;
59770;SDS011;45649;53.014;6.600;2022-12-24T11:41:50;29.37;;;5.20;;
59770;SDS011;45649;53.014;6.600;2022-12-24T11:44:24;29.80;;;6.00;;
59770;SDS011;45649;53.014;6.600;2022-12-24T11:46:51;29.30;;;5.53;;
59770;SDS011;45649;53.014;6.600;2022-12-24T11:54:25;26.80;;;4.73;;
59770;SDS011;45649;53.014;6.600;2022-12-24T11:56:52;28.73;;;5.40;;
59770;SDS011;45649;53.014;6.600;2022-12-24T11:59:30;29.70;;;5.30;;
59770;SDS011;45649;53.014;6.600;2022-12-24T12:04:41;28.23;;;5.77;;
59770;SDS011;45649;53.014;6.600;2022-12-24T12:07:16;26.37;;;4.93;;
59770;SDS011;45649;53.014;6.600;2022-12-24T12:09:44;31.20;;;7.47;;
59770;SDS011;45649;53.014;6.600;2022-12-24T12:12:26;26.73;;;5.97;;
59770;SDS011;45649;53.014;6.600;2022-12-24T12:14:54;27.23;;;5.80;;
59770;SDS011;45649;53.014;6.600;2022-12-24T12:17:32;25.17;;;5.27;;
59770;SDS011;45649;53.014;6.600;2022-12-24T12:20:11;20.43;;;4.87;;
59770;SDS011;45649;53.014;6.600;2022-12-24T12:22:44;26.47;;;5.87;;
59770;SDS011;45649;53.014;6.600;2022-12-24T12:25:18;31.97;;;5.47;;
59770;SDS011;45649;53.014;6.600;2022-12-24T12:27:46;31.80;;;5.80;;
59770;SDS011;45649;53.014;6.600;2022-12-24T12:30:18;30.43;;;5.40;;
59770;SDS011;45649;53.014;6.600;2022-12-24T12:35:15;24.47;;;5.70;;
59770;SDS011;45649;53.014;6.600;2022-12-24T12:37:47;21.77;;;5.13;;
59770;SDS011;45649;53.014;6.600;2022-12-24T12:40:16;24.13;;;4.70;;
59770;SDS011;45649;53.014;6.600;2022-12-24T12:42:45;24.73;;;6.00;;
59770;SDS011;45649;53.014;6.600;2022-12-24T12:57:47;25.63;;;6.57;;
59770;SDS011;45649;53.014;6.600;2022-12-24T13:00:16;21.53;;;5.07;;
59770;SDS011;45649;53.014;6.600;2022-12-24T13:02:49;20.67;;;5.43;;
59770;SDS011;45649;53.014;6.600;2022-12-24T13:15:32;26.97;;;5.37;;
59770;SDS011;45649;53.014;6.600;2022-12-24T13:20:35;23.13;;;5.33;;
59770;SDS011;45649;53.014;6.600;2022-12-24T13:23:12;18.83;;;5.13;;
59770;SDS011;45649;53.014;6.600;2022-12-24T13:25:40;25.57;;;5.00;;
59770;SDS011;45649;53.014;6.600;2022-12-24T13:33:45;20.90;;;4.63;;
59770;SDS011;45649;53.014;6.600;2022-12-24T13:36:12;22.37;;;4.67;;
59770;SDS011;45649;53.014;6.600;2022-12-24T13:38:47;23.57;;;5.13;;
59770;SDS011;45649;53.014;6.600;2022-12-24T13:44:21;28.50;;;5.83;;
59770;SDS011;45649;53.014;6.600;2022-12-24T13:46:46;20.67;;;5.63;;
59770;SDS011;45649;53.014;6.600;2022-12-24T13:52:05;26.10;;;6.33;;
59770;SDS011;45649;53.014;6.600;2022-12-24T13:54:31;22.80;;;6.00;;
59770;SDS011;45649;53.014;6.600;2022-12-24T13:56:58;24.93;;;8.43;;
59770;SDS011;45649;53.014;6.600;2022-12-24T13:59:35;24.73;;;5.60;;
59770;SDS011;45649;53.014;6.600;2022-12-24T14:02:02;26.00;;;6.27;;
59770;SDS011;45649;53.014;6.600;2022-12-24T14:04:33;24.93;;;6.00;;
59770;SDS011;45649;53.014;6.600;2022-12-24T14:07:01;20.77;;;5.30;;
59770;SDS011;45649;53.014;6.600;2022-12-24T14:09:28;22.03;;;5.63;;
59770;SDS011;45649;53.014;6.600;2022-12-24T14:14:39;25.47;;;5.20;;
59770;SDS011;45649;53.014;6.600;2022-12-24T14:19:42;21.00;;;4.90;;
59770;SDS011;45649;53.014;6.600;2022-12-24T14:24:47;20.47;;;4.97;;
59770;SDS011;45649;53.014;6.600;2022-12-24T14:32:14;20.60;;;4.67;;
59770;SDS011;45649;53.014;6.600;2022-12-24T14:34:41;18.10;;;4.70;;
59770;SDS011;45649;53.014;6.600;2022-12-24T14:37:08;23.00;;;5.03;;
59770;SDS011;45649;53.014;6.600;2022-12-24T14:39:36;20.37;;;4.67;;
59770;SDS011;45649;53.014;6.600;2022-12-24T14:50:22;23.50;;;5.60;;
59770;SDS011;45649;53.014;6.600;2022-12-24T14:55:27;20.43;;;5.07;;
59770;SDS011;45649;53.014;6.600;2022-12-24T15:00:41;17.40;;;3.97;;
59770;SDS011;45649;53.014;6.600;2022-12-24T15:03:14;17.90;;;4.57;;
59770;SDS011;45649;53.014;6.600;2022-12-24T15:05:40;18.43;;;4.40;;
59770;SDS011;45649;53.014;6.600;2022-12-24T15:08:08;16.38;;;4.35;;
59770;SDS011;45649;53.014;6.600;2022-12-24T15:10:35;18.13;;;4.93;;
59770;SDS011;45649;53.014;6.600;2022-12-24T15:13:06;20.60;;;5.03;;
59770;SDS011;45649;53.014;6.600;2022-12-24T15:15:33;16.10;;;4.77;;
59770;SDS011;45649;53.014;6.600;2022-12-24T15:18:00;20.47;;;4.60;;
59770;SDS011;45649;53.014;6.600;2022-12-24T15:20:28;17.00;;;4.57;;
59770;SDS011;45649;53.014;6.600;2022-12-24T15:22:55;16.67;;;3.87;;
59770;SDS011;45649;53.014;6.600;2022-12-24T15:25:27;19.33;;;4.23;;
59770;SDS011;45649;53.014;6.600;2022-12-24T15:27:53;18.90;;;4.20;;
59770;SDS011;45649;53.014;6.600;2022-12-24T15:30:22;20.40;;;4.13;;
59770;SDS011;45649;53.014;6.600;2022-12-24T15:32:50;19.30;;;4.73;;
59770;SDS011;45649;53.014;6.600;2022-12-24T15:35:34;18.00;;;4.13;;
59770;SDS011;45649;53.014;6.600;2022-12-24T15:38:16;16.30;;;4.47;;
59770;SDS011;45649;53.014;6.600;2022-12-24T15:40:47;14.90;;;4.07;;
59770;SDS011;45649;53.014;6.600;2022-12-24T15:43:13;17.07;;;3.97;;
59770;SDS011;45649;53.014;6.600;2022-12-24T15:45:41;16.73;;;3.90;;
59770;SDS011;45649;53.014;6.600;2022-12-24T15:48:09;18.33;;;3.87;;
59770;SDS011;45649;53.014;6.600;2022-12-24T15:50:36;17.27;;;4.07;;
59770;SDS011;45649;53.014;6.600;2022-12-24T15:53:03;14.13;;;4.20;;
59770;SDS011;45649;53.014;6.600;2022-12-24T15:55:35;15.73;;;4.17;;
59770;SDS011;45649;53.014;6.600;2022-12-24T15:58:12;16.33;;;5.38;;
59770;SDS011;45649;53.014;6.600;2022-12-24T16:00:39;16.98;;;5.47;;
59770;SDS011;45649;53.014;6.600;2022-12-24T16:03:16;19.40;;;5.60;;
59770;SDS011;45649;53.014;6.600;2022-12-24T16:05:42;20.10;;;6.00;;
59770;SDS011;45649;53.014;6.600;2022-12-24T16:10:39;17.17;;;5.67;;
59770;SDS011;45649;53.014;6.600;2022-12-24T16:13:28;19.20;;;5.83;;
59770;SDS011;45649;53.014;6.600;2022-12-24T16:15:58;19.93;;;6.73;;
59770;SDS011;45649;53.014;6.600;2022-12-24T16:18:26;16.95;;;8.27;;
59770;SDS011;45649;53.014;6.600;2022-12-24T16:20:53;20.00;;;7.27;;
59770;SDS011;45649;53.014;6.600;2022-12-24T16:23:21;23.17;;;6.63;;
59770;SDS011;45649;53.014;6.600;2022-12-24T16:25:48;15.93;;;6.77;;
59770;SDS011;45649;53.014;6.600;2022-12-24T16:28:14;19.10;;;5.93;;
59770;SDS011;45649;53.014;6.600;2022-12-24T16:30:42;17.60;;;6.43;;
59770;SDS011;45649;53.014;6.600;2022-12-24T16:33:12;21.77;;;7.87;;
59770;SDS011;45649;53.014;6.600;2022-12-24T16:35:39;28.80;;;8.60;;
59770;SDS011;45649;53.014;6.600;2022-12-24T16:38:05;22.60;;;6.97;;
59770;SDS011;45649;53.014;6.600;2022-12-24T16:40:31;22.43;;;7.80;;
59770;SDS011;45649;53.014;6.600;2022-12-24T16:42:57;22.33;;;8.23;;